Time;durP1;ratioP1;P1;durP2;ratioP2;P2;SDS_P1;SDS_P2;PMS_P1;PMS_P2;Temp;Humidity;BMP_temperature;BMP_pressure;BME280_temperature;BME280_humidity;BME280_pressure;Samples;Min_cycle;Max_cycle;Signal;HPM_P1;HPM_P2
2021/10/15 00:01:53;;;;;;;6.18;1.98;;;;;;;11.20;90.71;99876.97;6311430;28;20229;-73
2021/10/15 00:04:58;;;;;;;5.28;1.83;;;;;;;11.26;90.15;99870.53;6311748;28;20268;-72
2021/10/15 00:08:02;;;;;;;3.45;1.70;;;;;;;11.18;90.40;99862.75;6310667;28;20531;-71
2021/10/15 00:11:06;;;;;;;4.68;1.77;;;;;;;11.18;90.57;99868.19;6311776;28;20226;-72
2021/10/15 00:14:13;;;;;;;4.10;1.75;;;;;;;11.11;90.71;99862.06;6311653;28;20250;-72
2021/10/15 00:17:19;;;;;;;3.53;1.77;;;;;;;11.09;90.84;99857.94;6311018;28;20187;-72
2021/10/15 00:20:23;;;;;;;2.75;2.00;;;;;;;11.12;91.19;99847.31;6310607;28;20206;-72
2021/10/15 00:23:27;;;;;;;3.85;1.58;;;;;;;11.11;91.50;99845.69;6310539;28;20381;-72
2021/10/15 00:26:31;;;;;;;3.60;1.60;;;;;;;11.26;90.35;99832.31;6311393;28;20309;-73
2021/10/15 00:29:35;;;;;;;3.85;1.60;;;;;;;11.33;89.65;99822.06;6310768;28;20199;-73
2021/10/15 00:32:41;;;;;;;3.95;1.92;;;;;;;11.22;90.62;99820.22;6311480;28;20183;-73
2021/10/15 00:35:45;;;;;;;3.22;1.92;;;;;;;11.24;90.49;99819.97;6313683;28;20260;-73
2021/10/15 00:38:50;;;;;;;3.13;2.05;;;;;;;11.28;90.85;99821.13;6315951;28;20183;-72
2021/10/15 00:41:54;;;;;;;3.67;1.95;;;;;;;11.28;90.47;99819.25;6315243;28;20183;-73
2021/10/15 00:44:58;;;;;;;5.15;1.95;;;;;;;11.24;90.88;99812.63;6315020;28;20420;-72
2021/10/15 00:48:03;;;;;;;4.10;2.03;;;;;;;11.36;90.16;99800.78;6315987;28;20183;-73
2021/10/15 00:51:10;;;;;;;6.60;2.22;;;;;;;11.32;90.32;99804.00;6316337;28;20183;-72
2021/10/15 00:54:17;;;;;;;1.95;1.70;;;;;;;11.28;90.15;99797.41;6315547;28;20194;-73
2021/10/15 00:57:21;;;;;;;6.35;1.95;;;;;;;11.36;90.05;99789.88;6316139;28;20187;-73
2021/10/15 01:00:25;;;;;;;8.70;2.00;;;;;;;11.36;90.20;99792.59;6330453;22;20183;-75
2021/10/15 01:03:31;;;;;;;10.70;1.95;;;;;;;11.55;88.66;99791.28;6313439;28;20530;-71
2021/10/15 01:06:37;;;;;;;6.93;2.10;;;;;;;11.35;89.72;99785.50;6315563;28;20283;-72
2021/10/15 01:09:43;;;;;;;5.28;1.90;;;;;;;11.43;89.65;99771.44;6315879;28;20190;-73
2021/10/15 01:12:48;;;;;;;1.92;1.63;;;;;;;11.39;89.61;99765.63;6315562;28;20183;-72
2021/10/15 01:16:01;;;;;;;5.30;1.75;;;;;;;11.40;89.53;99761.00;6315896;28;20195;-72
2021/10/15 01:19:06;;;;;;;1.60;1.50;;;;;;;11.39;89.90;99759.34;6314553;28;20494;-72
2021/10/15 01:22:12;;;;;;;1.88;1.83;;;;;;;11.28;90.24;99748.25;6314432;28;20464;-72
2021/10/15 01:25:17;;;;;;;2.85;1.77;;;;;;;11.32;90.08;99743.94;6314334;28;20233;-73
2021/10/15 01:28:22;;;;;;;1.88;1.70;;;;;;;11.40;89.78;99744.63;6314348;28;20475;-72
2021/10/15 01:31:27;;;;;;;1.98;1.48;;;;;;;11.40;89.84;99736.44;6314657;28;20191;-72
2021/10/15 01:34:31;;;;;;;3.00;1.70;;;;;;;11.47;89.15;99729.72;6315493;28;20188;-72
2021/10/15 01:37:36;;;;;;;3.95;1.60;;;;;;;11.39;89.98;99732.88;6314959;28;20188;-72
2021/10/15 01:40:41;;;;;;;3.03;1.45;;;;;;;11.44;89.40;99713.00;6314819;28;20231;-72
2021/10/15 01:43:45;;;;;;;2.75;2.10;;;;;;;11.37;89.92;99717.81;6315324;28;20253;-72
2021/10/15 01:46:50;;;;;;;2.22;2.10;;;;;;;11.53;88.99;99703.31;6313051;28;20211;-72
2021/10/15 01:49:54;;;;;;;8.40;1.90;;;;;;;11.37;89.82;99704.16;6314446;28;20183;-72
2021/10/15 01:53:01;;;;;;;1.88;1.77;;;;;;;11.31;90.01;99704.06;6314422;28;20320;-72
2021/10/15 01:56:05;;;;;;;2.03;1.85;;;;;;;11.37;89.84;99706.88;6314634;28;20187;-72
2021/10/15 01:59:10;;;;;;;7.95;1.60;;;;;;;11.35;89.93;99693.47;6314496;28;20190;-72
2021/10/15 02:02:14;;;;;;;4.93;1.90;;;;;;;11.36;90.07;99700.59;6313951;28;20311;-72
2021/10/15 02:05:19;;;;;;;3.78;1.88;;;;;;;11.40;89.83;99700.94;6313317;28;20445;-72
2021/10/15 02:08:25;;;;;;;4.38;2.10;;;;;;;11.35;89.63;99698.91;6313316;28;20199;-72
2021/10/15 02:11:29;;;;;;;7.85;2.08;;;;;;;11.37;89.90;99685.88;6314688;28;20276;-72
2021/10/15 02:14:33;;;;;;;2.88;1.98;;;;;;;11.29;89.84;99681.66;6313242;28;20517;-72
2021/10/15 02:17:37;;;;;;;2.13;1.80;;;;;;;11.44;89.33;99670.13;6314675;28;20194;-72
2021/10/15 02:20:41;;;;;;;3.40;1.98;;;;;;;11.44;89.35;99669.28;6314687;28;20298;-72
2021/10/15 02:23:47;;;;;;;2.30;2.10;;;;;;;11.33;89.50;99652.75;6314622;28;20183;-72
2021/10/15 02:26:51;;;;;;;6.03;1.77;;;;;;;11.31;89.87;99654.94;6313269;28;20462;-72
2021/10/15 02:29:56;;;;;;;2.40;1.80;;;;;;;11.33;90.02;99652.75;6313141;28;20499;-72
2021/10/15 02:33:02;;;;;;;8.65;2.10;;;;;;;11.30;90.11;99647.78;6313685;28;20190;-72
2021/10/15 02:36:06;;;;;;;11.73;1.92;;;;;;;11.41;89.37;99647.94;6314418;28;20188;-72
2021/10/15 02:39:12;;;;;;;12.27;2.25;;;;;;;11.46;88.82;99640.66;6313149;28;20187;-72
2021/10/15 02:42:16;;;;;;;4.50;1.88;;;;;;;11.50;88.60;99630.91;6313046;28;20534;-72
2021/10/15 02:45:20;;;;;;;2.50;2.00;;;;;;;11.47;89.13;99616.91;6312613;28;20256;-72
2021/10/15 02:48:25;;;;;;;4.78;1.83;;;;;;;11.45;89.23;99616.34;6313725;28;20231;-72
2021/10/15 02:51:29;;;;;;;3.55;1.88;;;;;;;11.45;89.30;99599.97;6313746;28;20196;-72
2021/10/15 02:54:34;;;;;;;7.97;2.30;;;;;;;11.42;89.57;99600.47;6312204;28;20382;-72
2021/10/15 02:57:38;;;;;;;2.00;1.90;;;;;;;11.40;89.65;99591.69;6313099;28;20219;-72
2021/10/15 03:00:44;;;;;;;4.13;1.80;;;;;;;11.32;89.98;99599.22;6311736;28;20206;-72
2021/10/15 03:03:49;;;;;;;5.60;2.10;;;;;;;11.45;89.57;99602.69;6312287;28;20183;-72
2021/10/15 03:06:53;;;;;;;1.80;1.70;;;;;;;11.48;89.29;99589.34;6313180;28;20207;-72
2021/10/15 03:09:58;;;;;;;4.30;1.83;;;;;;;11.40;89.13;99573.38;6313274;28;20264;-72
2021/10/15 03:13:03;;;;;;;1.77;1.65;;;;;;;11.41;89.70;99571.47;6311854;28;20471;-72
2021/10/15 03:16:09;;;;;;;5.90;1.80;;;;;;;11.47;89.40;99559.56;6312697;28;20187;-73
2021/10/15 03:19:14;;;;;;;5.10;1.83;;;;;;;11.44;89.42;99565.53;6313103;28;20183;-72
2021/10/15 03:22:18;;;;;;;2.80;2.08;;;;;;;11.44;89.42;99554.59;6311651;28;20552;-72
2021/10/15 03:25:23;;;;;;;1.90;1.80;;;;;;;11.58;88.43;99566.81;6312514;28;20247;-72
2021/10/15 03:28:28;;;;;;;1.80;1.67;;;;;;;11.53;88.81;99553.09;6311437;28;20215;-73
2021/10/15 03:31:32;;;;;;;3.50;2.10;;;;;;;11.49;89.18;99546.47;6312590;28;20249;-73
2021/10/15 03:34:36;;;;;;;3.58;1.85;;;;;;;11.48;89.32;99550.31;6312097;28;20249;-73
2021/10/15 03:37:40;;;;;;;1.70;1.60;;;;;;;11.48;89.28;99529.25;6312738;28;20254;-74
2021/10/15 03:40:47;;;;;;;1.85;1.60;;;;;;;11.53;89.47;99526.56;6311470;28;20447;-73
2021/10/15 03:43:51;;;;;;;1.58;1.48;;;;;;;11.51;89.40;99522.44;6311245;28;20239;-72
2021/10/15 03:46:55;;;;;;;3.80;1.80;;;;;;;11.47;89.80;99515.88;6311079;28;20211;-72
2021/10/15 03:50:00;;;;;;;2.70;1.60;;;;;;;11.57;89.75;99521.44;6312144;28;20190;-73
2021/10/15 03:53:04;;;;;;;3.85;1.77;;;;;;;11.63;88.81;99521.25;6311591;28;20229;-72
2021/10/15 03:56:10;;;;;;;1.85;1.75;;;;;;;11.70;88.32;99507.44;6312067;28;20187;-72
2021/10/15 03:59:14;;;;;;;2.10;1.90;;;;;;;11.53;89.36;99503.94;6312420;28;20183;-72
2021/10/15 04:02:19;;;;;;;1.58;1.50;;;;;;;11.59;89.28;99497.44;6310967;28;20296;-73
2021/10/15 04:05:23;;;;;;;2.15;1.50;;;;;;;11.58;89.24;99482.13;6311166;28;20187;-73
2021/10/15 04:08:27;;;;;;;3.47;1.65;;;;;;;11.58;89.10;99484.88;6312041;28;20207;-72
2021/10/15 04:11:33;;;;;;;1.67;1.63;;;;;;;11.59;88.91;99475.56;6314180;28;20475;-72
2021/10/15 04:14:38;;;;;;;3.80;1.42;;;;;;;11.54;89.41;99472.78;6316100;28;20247;-72
2021/10/15 04:17:42;;;;;;;3.90;1.50;;;;;;;11.61;88.98;99478.88;6316887;28;20191;-72
2021/10/15 04:20:47;;;;;;;2.80;1.50;;;;;;;11.53;89.58;99465.69;6317091;28;20183;-72
2021/10/15 04:23:51;;;;;;;1.88;1.77;;;;;;;11.51;89.58;99462.38;6316388;28;20184;-72
2021/10/15 04:26:57;;;;;;;2.38;1.63;;;;;;;11.51;89.92;99456.91;6316952;28;20242;-72
2021/10/15 04:30:01;;;;;;;1.90;1.80;;;;;;;11.48;90.06;99452.78;6317021;28;20251;-72
2021/10/15 04:33:05;;;;;;;1.50;1.50;;;;;;;11.53;90.06;99449.31;6315707;28;20447;-72
2021/10/15 04:36:09;;;;;;;3.97;1.60;;;;;;;11.59;89.46;99442.78;6315475;28;20237;-72
2021/10/15 04:39:14;;;;;;;6.18;1.50;;;;;;;11.57;89.88;99444.97;6316789;28;20221;-73
2021/10/15 04:42:20;;;;;;;1.60;1.50;;;;;;;11.55;90.78;99425.28;6316663;28;20184;-72
2021/10/15 04:45:24;;;;;;;6.50;1.55;;;;;;;11.50;91.54;99422.50;6315361;28;20197;-72
2021/10/15 04:48:28;;;;;;;1.38;1.38;;;;;;;11.52;92.15;99403.94;6315125;28;20392;-72
2021/10/15 04:51:32;;;;;;;1.30;1.30;;;;;;;11.62;91.28;99417.72;6316145;28;20249;-72
2021/10/15 04:54:36;;;;;;;3.20;1.70;;;;;;;11.51;92.59;99402.28;6315228;28;20199;-72
2021/10/15 04:57:42;;;;;;;2.08;1.40;;;;;;;11.54;93.25;99402.59;6314904;28;20196;-73
2021/10/15 05:00:46;;;;;;;4.90;1.38;;;;;;;11.49;93.96;99382.59;6314790;28;21270;-72
2021/10/15 05:03:50;;;;;;;1.98;1.50;;;;;;;11.53;93.96;99389.22;6315996;28;20183;-72
2021/10/15 05:06:58;;;;;;;1.30;1.30;;;;;;;11.50;94.76;99390.56;6314993;28;20258;-72
2021/10/15 05:10:02;;;;;;;1.58;1.40;;;;;;;11.53;95.48;99384.56;6314824;28;20183;-72
2021/10/15 05:13:11;;;;;;;3.17;1.90;;;;;;;11.44;96.75;99379.81;6316069;28;20183;-73
2021/10/15 05:16:15;;;;;;;1.88;1.55;;;;;;;11.32;98.15;99364.41;6315663;28;20191;-72
2021/10/15 05:19:19;;;;;;;2.10;1.58;;;;;;;11.33;98.84;99355.16;6315897;28;20194;-73
2021/10/15 05:22:23;;;;;;;9.50;1.90;;;;;;;11.38;98.39;99359.00;6314037;28;20183;-72
2021/10/15 05:25:27;;;;;;;2.75;1.77;;;;;;;11.27;99.39;99352.63;6315563;28;20294;-72
2021/10/15 05:28:34;;;;;;;3.05;2.00;;;;;;;11.26;100.00;99351.81;6315226;28;20207;-73
2021/10/15 05:31:38;;;;;;;5.03;2.00;;;;;;;11.29;100.00;99347.75;6314208;28;20475;-72
2021/10/15 05:34:43;;;;;;;1.80;1.80;;;;;;;11.20;100.00;99358.28;6314559;28;20192;-73
2021/10/15 05:37:47;;;;;;;2.70;1.73;;;;;;;11.18;100.00;99338.63;6314772;28;20194;-72
2021/10/15 05:40:51;;;;;;;2.70;1.70;;;;;;;11.31;100.00;99334.66;6314374;28;20249;-71
2021/10/15 05:43:57;;;;;;;1.63;1.52;;;;;;;11.41;100.00;99331.19;6315191;28;20190;-72
2021/10/15 05:47:04;;;;;;;3.45;1.70;;;;;;;11.37;100.00;99319.16;6313584;28;20184;-72
2021/10/15 05:50:09;;;;;;;3.42;1.80;;;;;;;11.42;100.00;99327.38;6313629;28;20258;-72
2021/10/15 05:53:17;;;;;;;3.30;1.85;;;;;;;11.39;100.00;99330.63;6314640;28;20247;-72
2021/10/15 05:56:38;;;;;;;4.85;1.42;;;;;;;11.38;100.00;99328.97;6313404;28;20384;-72
2021/10/15 05:59:44;;;;;;;2.08;1.70;;;;;;;11.39;100.00;99338.81;6313662;28;20195;-72
2021/10/15 06:02:48;;;;;;;1.27;1.27;;;;;;;11.40;100.00;99330.34;6313388;28;20466;-72
2021/10/15 06:16:04;;;;;;;3.78;1.35;;;;;;;11.42;100.00;99327.38;6312993;28;20467;-72
2021/10/15 06:19:11;;;;;;;2.28;1.40;;;;;;;11.36;100.00;99312.84;6313056;28;20187;-71
2021/10/15 06:22:15;;;;;;;1.60;1.50;;;;;;;11.42;100.00;99308.28;6313035;28;20479;-72
2021/10/15 06:25:19;;;;;;;2.78;1.30;;;;;;;11.38;100.00;99298.94;6314351;28;20183;-72
2021/10/15 06:28:23;;;;;;;1.33;1.30;;;;;;;11.49;100.00;99290.59;6312680;28;20407;-72
2021/10/15 06:31:30;;;;;;;2.35;1.40;;;;;;;11.53;100.00;99291.69;6313481;28;20252;-72
2021/10/15 06:34:34;;;;;;;1.65;1.38;;;;;;;11.54;100.00;99284.34;6313805;28;20187;-72
2021/10/15 06:37:38;;;;;;;1.85;1.40;;;;;;;11.50;100.00;99288.69;6312549;28;20456;-71
2021/10/15 06:40:42;;;;;;;2.08;1.40;;;;;;;11.55;100.00;99292.28;6313415;28;20188;-71
2021/10/15 06:43:47;;;;;;;1.52;1.42;;;;;;;11.49;100.00;99268.75;6314025;28;20187;-72
2021/10/15 06:46:53;;;;;;;2.53;1.40;;;;;;;11.60;100.00;99291.50;6312569;28;20250;-72
2021/10/15 06:49:57;;;;;;;1.40;1.40;;;;;;;11.63;100.00;99288.25;6313580;28;20246;-72
2021/10/15 06:53:01;;;;;;;1.00;1.00;;;;;;;11.69;100.00;99287.22;6313613;28;20282;-72
2021/10/15 06:56:06;;;;;;;1.48;1.38;;;;;;;11.67;100.00;99292.09;6312070;28;20491;-72
2021/10/15 06:59:10;;;;;;;1.58;1.23;;;;;;;11.67;100.00;99287.47;6312537;28;20194;-72
2021/10/15 07:02:16;;;;;;;1.10;1.10;;;;;;;11.73;100.00;99274.69;6312847;28;20231;-72
2021/10/15 07:05:20;;;;;;;2.33;1.27;;;;;;;11.74;100.00;99265.41;6312694;28;20270;-72
2021/10/15 07:08:25;;;;;;;2.63;1.15;;;;;;;11.71;98.13;99279.59;6312991;28;20207;-72
2021/10/15 07:11:30;;;;;;;1.02;1.00;;;;;;;11.57;95.79;99286.56;6311709;28;20378;-72
2021/10/15 07:14:35;;;;;;;1.25;0.98;;;;;;;11.59;97.37;99265.25;6313089;28;20241;-72
2021/10/15 07:17:40;;;;;;;1.33;1.33;;;;;;;11.63;95.01;99263.66;6312336;28;20183;-72
2021/10/15 07:20:45;;;;;;;0.88;0.88;;;;;;;11.66;93.32;99257.66;6311945;28;20554;-72
2021/10/15 07:23:50;;;;;;;0.90;0.90;;;;;;;11.65;93.59;99272.41;6312946;28;20184;-73
2021/10/15 07:26:54;;;;;;;3.03;1.40;;;;;;;11.57;93.71;99270.16;6312545;28;20253;-72
2021/10/15 07:29:58;;;;;;;0.90;0.90;;;;;;;11.47;94.48;99281.00;6312347;28;20317;-72
2021/10/15 07:33:04;;;;;;;1.98;1.02;;;;;;;11.61;93.65;99287.66;6311445;28;20187;-72
2021/10/15 07:36:09;;;;;;;2.97;0.80;;;;;;;11.56;93.50;99284.88;6312330;28;20211;-71
2021/10/15 07:39:13;;;;;;;2.47;0.98;;;;;;;11.41;93.83;99287.50;6312394;28;20187;-72
2021/10/15 07:42:17;;;;;;;1.30;1.20;;;;;;;11.48;94.03;99288.13;6312176;28;20183;-72
2021/10/15 07:45:21;;;;;;;1.02;1.00;;;;;;;11.52;94.17;99289.25;6311614;28;20187;-72
2021/10/15 07:48:36;;;;;;;3.83;0.98;;;;;;;11.58;94.50;99282.75;6312219;28;20219;-72
2021/10/15 07:51:41;;;;;;;1.10;1.00;;;;;;;11.59;92.43;99284.38;6311120;28;20221;-72
2021/10/15 07:54:45;;;;;;;1.23;1.10;;;;;;;11.58;92.39;99283.53;6312006;28;20184;-73
2021/10/15 07:57:50;;;;;;;0.95;0.95;;;;;;;11.63;92.22;99274.59;6311023;28;20184;-72
2021/10/15 08:00:54;;;;;;;1.02;0.98;;;;;;;11.60;92.34;99286.03;6312148;28;20199;-72
2021/10/15 08:04:00;;;;;;;5.88;1.23;;;;;;;11.59;92.18;99273.44;6310978;28;20190;-72
2021/10/15 08:07:24;;;;;;;1.30;1.20;;;;;;;11.46;92.27;99284.81;6312318;28;20222;-72
2021/10/15 08:10:28;;;;;;;4.68;1.30;;;;;;;11.70;90.74;99280.69;6312283;28;20246;-72
2021/10/15 08:13:33;;;;;;;1.00;1.00;;;;;;;11.63;90.54;99280.06;6311920;28;20183;-72
2021/10/15 08:16:38;;;;;;;2.40;1.08;;;;;;;11.62;91.20;99290.16;6310863;28;20454;-72
2021/10/15 08:19:43;;;;;;;2.80;1.10;;;;;;;11.60;91.48;99286.88;6312402;28;20191;-72
2021/10/15 08:22:48;;;;;;;3.05;1.00;;;;;;;11.60;90.71;99275.13;6311221;28;20259;-72
2021/10/15 08:26:01;;;;;;;1.70;1.05;;;;;;;11.59;90.45;99295.31;6311426;28;20223;-72
2021/10/15 08:29:05;;;;;;;1.92;1.00;;;;;;;11.59;90.80;99292.56;6312068;28;20349;-72
2021/10/15 08:32:11;;;;;;;1.67;1.27;;;;;;;11.64;90.05;99298.06;6311745;28;20184;-72
2021/10/15 08:35:17;;;;;;;1.20;1.05;;;;;;;11.69;91.51;99300.88;6310721;28;20183;-72
2021/10/15 08:38:21;;;;;;;2.25;0.90;;;;;;;11.63;90.01;99307.38;6311712;28;20247;-72
2021/10/15 08:41:26;;;;;;;1.17;1.10;;;;;;;11.53;88.84;99297.16;6311159;28;20262;-72
2021/10/15 08:44:35;;;;;;;2.67;1.33;;;;;;;11.50;88.40;99316.81;6311944;28;20215;-72
2021/10/15 08:47:40;;;;;;;1.17;1.15;;;;;;;11.53;87.83;99296.38;6310453;28;20479;-72
2021/10/15 08:51:09;;;;;;;1.00;1.00;;;;;;;11.54;87.89;99303.44;6292920;28;20254;-71
2021/10/15 08:54:13;;;;;;;3.35;1.20;;;;;;;11.37;88.13;99294.56;6311505;28;20255;-71
2021/10/15 08:57:17;;;;;;;2.40;1.10;;;;;;;11.31;89.14;99297.25;6314376;28;20183;-72
2021/10/15 09:00:25;;;;;;;1.30;1.10;;;;;;;11.45;87.20;99292.19;6315826;28;20203;-72
2021/10/15 09:03:31;;;;;;;1.08;1.08;;;;;;;11.43;86.56;99301.75;6315953;28;20235;-72
2021/10/15 09:06:38;;;;;;;3.63;1.50;;;;;;;11.50;87.68;99292.25;6314699;28;20475;-71
2021/10/15 09:09:43;;;;;;;4.45;1.27;;;;;;;11.42;85.96;99291.88;6314967;28;20211;-71
2021/10/15 09:12:56;;;;;;;2.10;1.02;;;;;;;11.41;85.89;99287.50;6314604;28;20348;-72
2021/10/15 09:16:03;;;;;;;3.20;1.00;;;;;;;11.32;85.43;99307.06;6314518;28;20460;-72
2021/10/15 09:19:22;;;;;;;1.63;1.13;;;;;;;11.37;85.57;99308.22;6314542;28;20191;-72
2021/10/15 09:22:30;;;;;;;3.20;1.25;;;;;;;11.39;86.41;99295.97;6314341;28;20255;-73
2021/10/15 09:25:35;;;;;;;1.73;1.27;;;;;;;11.28;87.44;99311.41;6314480;28;20485;-73
2021/10/15 09:28:41;;;;;;;3.60;1.50;;;;;;;11.28;85.11;99305.97;6314412;28;20471;-72
2021/10/15 09:31:49;;;;;;;2.08;1.00;;;;;;;11.32;85.29;99312.53;6315108;28;20208;-72
2021/10/15 09:34:55;;;;;;;1.10;1.10;;;;;;;11.31;85.52;99305.44;6296681;28;20199;-72
2021/10/15 09:38:02;;;;;;;7.07;1.50;;;;;;;11.27;82.71;99309.75;6314974;28;20184;-72
2021/10/15 09:41:06;;;;;;;1.52;1.13;;;;;;;11.39;83.08;99316.97;6313883;28;20471;-72
2021/10/15 09:44:31;;;;;;;2.60;1.23;;;;;;;11.37;81.91;99310.97;6315221;28;20252;-72
2021/10/15 09:47:36;;;;;;;1.60;1.15;;;;;;;11.41;83.03;99303.88;6314798;28;20215;-72
2021/10/15 09:50:40;;;;;;;2.15;0.80;;;;;;;11.36;82.33;99312.03;6315062;28;20252;-72
2021/10/15 09:54:11;;;;;;;4.28;1.13;;;;;;;11.42;80.05;99321.91;6314739;28;20184;-72
2021/10/15 09:57:28;;;;;;;3.92;1.20;;;;;;;11.48;78.58;99307.25;6313567;28;20230;-73
2021/10/15 10:00:32;;;;;;;2.35;1.10;;;;;;;11.53;79.14;99315.47;6313827;28;20207;-73
2021/10/15 10:03:37;;;;;;;2.08;0.80;;;;;;;11.64;78.95;99309.84;6314329;28;20262;-73
2021/10/15 10:06:42;;;;;;;1.10;1.00;;;;;;;11.62;78.19;99303.81;6313790;28;20191;-71
2021/10/15 10:09:48;;;;;;;0.90;0.90;;;;;;;11.74;77.58;99304.47;6312716;28;20541;-72
2021/10/15 10:12:54;;;;;;;0.90;0.90;;;;;;;11.76;76.67;99298.78;6313199;28;20493;-72
2021/10/15 10:15:58;;;;;;;1.00;1.00;;;;;;;11.71;77.76;99304.19;6316612;28;20190;-72
2021/10/15 10:19:04;;;;;;;2.75;1.25;;;;;;;11.65;76.64;99295.09;6315221;28;20183;-72
2021/10/15 10:22:11;;;;;;;1.30;1.30;;;;;;;11.80;76.44;99308.06;6314927;28;20219;-73
2021/10/15 10:25:23;;;;;;;0.90;0.90;;;;;;;11.85;75.93;99310.84;6315628;28;20232;-72
2021/10/15 10:28:28;;;;;;;0.88;0.88;;;;;;;11.96;75.28;99307.13;6314189;28;20184;-73
2021/10/15 10:31:34;;;;;;;2.28;1.02;;;;;;;12.12;74.47;99306.09;6315424;28;20301;-72
2021/10/15 10:34:38;;;;;;;0.70;0.70;;;;;;;12.16;73.28;99290.84;6315932;28;20229;-72
2021/10/15 10:37:42;;;;;;;5.45;1.10;;;;;;;12.25;73.72;99300.16;6315388;28;20183;-72
2021/10/15 10:41:18;;;;;;;1.40;1.00;;;;;;;12.23;70.83;99299.63;6315473;28;20249;-73
2021/10/15 10:44:24;;;;;;;7.60;1.88;;;;;;;12.29;70.74;99295.84;6314712;28;20183;-73
2021/10/15 10:47:29;;;;;;;0.95;0.95;;;;;;;12.24;71.21;99312.22;6314103;28;20183;-73
2021/10/15 10:50:34;;;;;;;3.30;0.90;;;;;;;12.38;70.52;99305.16;6312716;28;20594;-72
2021/10/15 10:54:22;;;;;;;2.30;1.00;;;;;;;12.34;71.07;99309.53;6313586;28;20194;-73
2021/10/15 10:57:29;;;;;;;1.92;0.80;;;;;;;12.13;70.58;99318.69;6313917;28;20253;-72
2021/10/15 11:00:34;;;;;;;1.65;1.10;;;;;;;12.25;70.47;99322.03;6312536;28;20242;-72
2021/10/15 11:03:39;;;;;;;1.38;0.70;;;;;;;12.24;69.81;99325.88;6313144;28;20243;-72
2021/10/15 11:06:57;;;;;;;0.80;0.80;;;;;;;12.17;70.44;99330.75;6312810;28;20185;-72
2021/10/15 11:10:04;;;;;;;3.13;1.30;;;;;;;12.08;69.78;99321.41;6312126;28;20491;-73
2021/10/15 11:13:31;;;;;;;1.08;0.95;;;;;;;12.04;68.26;99339.44;6313330;28;20183;-72
2021/10/15 11:16:36;;;;;;;3.40;1.02;;;;;;;11.94;68.06;99342.06;6313173;28;20184;-72
2021/10/15 11:19:41;;;;;;;1.75;1.00;;;;;;;11.94;68.52;99339.31;6312198;28;20183;-72
2021/10/15 11:22:50;;;;;;;0.80;0.80;;;;;;;11.99;66.63;99333.09;6312938;28;20285;-73
2021/10/15 11:25:54;;;;;;;0.70;0.70;;;;;;;12.02;66.24;99352.50;6313020;28;20219;-72
2021/10/15 11:28:58;;;;;;;0.82;0.82;;;;;;;11.91;69.25;99419.13;6312753;28;20260;-73
2021/10/15 11:32:05;;;;;;;0.60;0.60;;;;;;;11.38;77.51;99430.81;6312846;28;20211;-71
2021/10/15 11:35:13;;;;;;;4.00;0.80;;;;;;;11.06;81.18;99443.56;6312352;28;20191;-72
2021/10/15 11:38:19;;;;;;;3.20;0.70;;;;;;;10.82;82.34;99464.78;6312712;28;20221;-71
2021/10/15 11:41:24;;;;;;;0.60;0.60;;;;;;;10.35;81.75;99469.00;6311366;28;20491;-71
2021/10/15 11:44:33;;;;;;;0.50;0.50;;;;;;;10.03;83.18;99479.59;6311337;28;20183;-71
2021/10/15 11:47:40;;;;;;;0.60;0.60;;;;;;;10.05;82.57;99500.06;6312293;28;20183;-71
2021/10/15 11:50:50;;;;;;;0.43;0.43;;;;;;;10.08;83.62;99496.03;6311220;28;20530;-72
2021/10/15 11:53:56;;;;;;;0.80;0.80;;;;;;;9.80;81.44;99520.56;6311181;28;20517;-71
2021/10/15 11:57:19;;;;;;;1.50;1.50;;;;;;;9.72;82.28;99516.34;6312518;28;20184;-72
2021/10/15 12:00:23;;;;;;;0.60;0.60;;;;;;;9.68;82.04;99526.06;6310973;28;20268;-72
2021/10/15 12:03:31;;;;;;;1.55;0.68;;;;;;;9.67;83.37;99521.69;6311985;28;20227;-72
2021/10/15 12:06:38;;;;;;;0.88;0.60;;;;;;;9.67;83.71;99532.59;6312259;28;20229;-71
2021/10/15 12:09:42;;;;;;;0.50;0.50;;;;;;;9.38;79.97;99545.34;6311010;28;20497;-71
2021/10/15 12:12:48;;;;;;;0.70;0.70;;;;;;;9.30;80.48;99555.75;6311936;28;20214;-71
2021/10/15 12:15:52;;;;;;;0.75;0.75;;;;;;;9.31;80.16;99562.88;6311962;28;20184;-72
2021/10/15 12:19:04;;;;;;;0.60;0.60;;;;;;;9.37;78.95;99587.22;6310784;28;20219;-73
2021/10/15 12:22:11;;;;;;;0.60;0.60;;;;;;;9.05;78.64;99575.09;6311780;28;20194;-72
2021/10/15 12:25:15;;;;;;;0.95;0.70;;;;;;;9.19;77.98;99589.28;6312230;28;20183;-72
2021/10/15 12:28:19;;;;;;;0.60;0.60;;;;;;;9.11;77.60;99608.69;6312218;28;20190;-71
2021/10/15 12:31:28;;;;;;;0.65;0.52;;;;;;;8.96;75.02;99617.28;6312323;28;20218;-71
2021/10/15 12:34:50;;;;;;;0.60;0.60;;;;;;;8.89;75.13;99622.03;6315700;28;20369;-72
2021/10/15 12:37:57;;;;;;;0.70;0.70;;;;;;;9.11;77.29;99616.84;6316601;28;20191;-71
2021/10/15 12:41:02;;;;;;;1.35;0.60;;;;;;;9.03;74.46;99628.06;6316476;28;20184;-72
2021/10/15 12:44:19;;;;;;;0.68;0.68;;;;;;;9.24;76.24;99627.50;6315476;28;20479;-72
2021/10/15 12:47:23;;;;;;;0.60;0.60;;;;;;;9.34;75.79;99663.09;6316347;28;20188;-72
2021/10/15 12:50:30;;;;;;;0.70;0.70;;;;;;;9.05;73.58;99647.69;6316324;28;20352;-73
2021/10/15 12:53:40;;;;;;;0.75;0.75;;;;;;;8.83;73.41;99650.19;6315111;28;20436;-73
2021/10/15 12:56:44;;;;;;;1.60;0.88;;;;;;;8.95;72.34;99659.19;6315056;28;20475;-73
2021/10/15 13:00:09;;;;;;;0.75;0.75;;;;;;;8.89;70.54;99681.03;6315542;28;20258;-73
2021/10/15 13:03:17;;;;;;;1.00;1.00;;;;;;;8.59;70.46;99671.03;6315298;28;20280;-73
2021/10/15 13:06:23;;;;;;;0.80;0.80;;;;;;;8.53;70.56;99682.00;6316040;28;20184;-73
2021/10/15 13:09:31;;;;;;;0.90;0.90;;;;;;;8.76;70.51;99685.63;6315688;28;20221;-73
2021/10/15 13:12:35;;;;;;;0.80;0.80;;;;;;;8.60;69.18;99693.63;6314554;28;20556;-73
2021/10/15 13:15:40;;;;;;;0.75;0.75;;;;;;;8.79;69.48;99695.19;6314661;28;20190;-73
2021/10/15 13:18:44;;;;;;;1.38;0.82;;;;;;;8.73;68.16;99705.13;6315609;28;20290;-72
2021/10/15 13:21:50;;;;;;;1.25;1.25;;;;;;;8.76;67.84;99704.66;6314556;28;20435;-73
2021/10/15 13:24:54;;;;;;;1.58;1.05;;;;;;;8.85;67.99;99739.69;6315826;28;20309;-73
2021/10/15 13:27:59;;;;;;;1.00;1.00;;;;;;;8.76;66.71;99726.41;6314478;28;20527;-72
2021/10/15 13:31:03;;;;;;;0.90;0.90;;;;;;;8.78;66.98;99737.88;6314286;28;20446;-73
2021/10/15 13:34:08;;;;;;;0.98;0.93;;;;;;;8.60;63.90;99737.94;6315290;28;20214;-73
2021/10/15 13:37:18;;;;;;;0.90;0.90;;;;;;;8.65;63.39;99748.94;6314552;28;20184;-73
2021/10/15 13:40:25;;;;;;;2.33;1.38;;;;;;;8.76;64.37;99756.31;6314846;28;20183;-73
2021/10/15 13:43:38;;;;;;;2.50;0.98;;;;;;;8.51;63.44;99749.38;6312972;28;20534;-73
2021/10/15 13:46:52;;;;;;;1.83;1.08;;;;;;;8.48;62.82;99768.84;6315296;28;20190;-73
2021/10/15 13:49:58;;;;;;;1.00;1.00;;;;;;;8.54;63.94;99774.22;6314595;28;20191;-73
2021/10/15 13:53:05;;;;;;;0.90;0.90;;;;;;;8.58;63.82;99769.97;6314599;28;20207;-73
2021/10/15 13:56:10;;;;;;;1.50;1.40;;;;;;;8.59;64.78;99758.03;6313679;28;20487;-73
2021/10/15 13:59:18;;;;;;;0.80;0.80;;;;;;;8.56;63.58;99780.25;6315031;28;20215;-72
2021/10/15 14:02:30;;;;;;;2.08;0.98;;;;;;;8.61;63.33;99766.78;6313971;28;20262;-72
2021/10/15 14:05:34;;;;;;;1.88;1.13;;;;;;;8.65;64.17;99789.72;6313326;28;20529;-73
2021/10/15 14:08:39;;;;;;;1.10;1.10;;;;;;;8.75;63.29;99773.72;6313219;28;20184;-73
2021/10/15 14:11:43;;;;;;;1.85;1.30;;;;;;;8.75;64.08;99798.19;6314436;28;20183;-73
2021/10/15 14:14:49;;;;;;;1.17;1.05;;;;;;;8.80;64.85;99819.25;6314490;28;20208;-73
2021/10/15 14:17:53;;;;;;;0.90;0.90;;;;;;;8.70;65.46;99819.81;6313946;28;20221;-73
2021/10/15 14:20:58;;;;;;;0.80;0.80;;;;;;;8.72;66.44;99825.84;6314354;28;20190;-73
2021/10/15 14:24:04;;;;;;;0.88;0.85;;;;;;;8.71;66.82;99826.88;6314236;28;20187;-73
2021/10/15 14:27:10;;;;;;;0.80;0.80;;;;;;;8.62;67.62;99850.03;6312713;28;20470;-73
2021/10/15 14:30:20;;;;;;;1.00;1.00;;;;;;;8.47;67.35;99848.75;6313156;28;20187;-71
2021/10/15 14:33:25;;;;;;;2.65;0.93;;;;;;;8.66;67.48;99856.66;6312618;28;20451;-71
2021/10/15 14:36:29;;;;;;;1.08;0.90;;;;;;;8.74;67.37;99878.09;6313619;28;20210;-71
2021/10/15 14:39:35;;;;;;;0.73;0.73;;;;;;;8.35;66.46;99867.69;6312274;28;20499;-72
2021/10/15 14:42:39;;;;;;;0.95;0.95;;;;;;;8.63;68.48;99892.44;6313654;28;20223;-72
2021/10/15 14:45:43;;;;;;;1.10;1.10;;;;;;;8.56;66.68;99883.56;6312332;28;20254;-73
2021/10/15 14:48:48;;;;;;;1.10;1.10;;;;;;;8.50;65.09;99884.44;6312253;28;20544;-73